UAL2047 KLAS-KSFO
Flight info
| Callsign | UAL2047 |
|---|---|
| Flight time | 1h 2m |
| Altitude | 36000 |
| Route | JOHKR5 KENNO RUSME DYAMD5 |
| Aircraft | A21N/M-SDE2E3FGHIJ1RWXYZ/LB1 |
Departure
| Time | 2026-05-06 23:03 |
|---|---|
| Airport | Harry Reid International Airport (KLAS) |
Arrival
| Time | 2026-05-07 00:06 |
|---|---|
| Airport | San Francisco International Airport (KSFO) |
| Time | Latitude | Longitude | Altitude | Speed | Heading |
|---|---|---|---|---|---|
| 2026-05-06 22:24 | 36.08315 | -115.14003 | 2104 ft | 0 kts | 131° |
| 2026-05-06 22:43 | 36.08328 | -115.14021 | 2103 ft | 4 kts | 123° |
| 2026-05-06 22:43 | 36.08341 | -115.14050 | 2102 ft | 4 kts | 119° |
| 2026-05-06 22:44 | 36.08355 | -115.14073 | 2101 ft | 4 kts | 162° |
| 2026-05-06 22:44 | 36.08359 | -115.14076 | 2101 ft | 2 kts | 224° |
| 2026-05-06 22:54 | 36.08346 | -115.14092 | 2102 ft | 5 kts | 224° |
| 2026-05-06 22:55 | 36.08308 | -115.14137 | 2103 ft | 10 kts | 224° |
| 2026-05-06 22:55 | 36.08224 | -115.14158 | 2107 ft | 15 kts | 181° |
| 2026-05-06 22:55 | 36.08104 | -115.14158 | 2114 ft | 20 kts | 179° |
| 2026-05-06 22:55 | 36.07955 | -115.14158 | 2121 ft | 23 kts | 180° |
| 2026-05-06 22:56 | 36.07821 | -115.14095 | 2124 ft | 25 kts | 84° |
| 2026-05-06 22:56 | 36.07828 | -115.13873 | 2129 ft | 27 kts | 94° |
| 2026-05-06 22:56 | 36.07825 | -115.13636 | 2129 ft | 28 kts | 89° |
| 2026-05-06 22:56 | 36.07827 | -115.13386 | 2132 ft | 30 kts | 90° |
| 2026-05-06 22:57 | 36.07826 | -115.13126 | 2130 ft | 31 kts | 90° |
| 2026-05-06 22:57 | 36.07827 | -115.12857 | 2124 ft | 32 kts | 90° |
| 2026-05-06 22:57 | 36.07829 | -115.12578 | 2123 ft | 33 kts | 90° |
| 2026-05-06 22:57 | 36.07828 | -115.12292 | 2123 ft | 31 kts | 102° |
| 2026-05-06 22:58 | 36.07742 | -115.12142 | 2127 ft | 9 kts | 137° |
| 2026-05-06 22:58 | 36.07741 | -115.12141 | 2127 ft | 0 kts | 140° |
| 2026-05-06 22:59 | 36.07730 | -115.12131 | 2128 ft | 5 kts | 146° |
| 2026-05-06 22:59 | 36.07678 | -115.12120 | 2130 ft | 10 kts | 179° |
| 2026-05-06 23:00 | 36.07644 | -115.12142 | 2130 ft | 0 kts | 276° |
| 2026-05-06 23:00 | 36.07644 | -115.12145 | 2130 ft | 0 kts | 271° |
| 2026-05-06 23:02 | 36.07644 | -115.12148 | 2130 ft | 4 kts | 271° |
| 2026-05-06 23:02 | 36.07644 | -115.12496 | 2127 ft | 81 kts | 270° |
| 2026-05-06 23:02 | 36.07641 | -115.13500 | 2130 ft | 147 kts | 269° |
| 2026-05-06 23:02 | 36.07639 | -115.14922 | 2140 ft | 185 kts | 269° |
| 2026-05-06 23:03 | 36.07641 | -115.16545 | 2655 ft | 189 kts | 269° |
| 2026-05-06 23:03 | 36.07618 | -115.18152 | 3333 ft | 191 kts | 268° |
| 2026-05-06 23:03 | 36.07600 | -115.19835 | 3871 ft | 202 kts | 269° |
| 2026-05-06 23:03 | 36.07479 | -115.21609 | 4381 ft | 214 kts | 261° |
| 2026-05-06 23:04 | 36.07210 | -115.23475 | 4880 ft | 229 kts | 257° |
| 2026-05-06 23:04 | 36.06597 | -115.25371 | 5304 ft | 248 kts | 234° |
| 2026-05-06 23:04 | 36.05281 | -115.26799 | 5807 ft | 262 kts | 206° |
| 2026-05-06 23:04 | 36.03538 | -115.27640 | 6353 ft | 277 kts | 198° |
| 2026-05-06 23:05 | 36.01684 | -115.28414 | 7012 ft | 285 kts | 199° |
| 2026-05-06 23:05 | 35.99799 | -115.29222 | 7784 ft | 289 kts | 201° |
| 2026-05-06 23:05 | 35.97959 | -115.30252 | 8591 ft | 292 kts | 207° |
| 2026-05-06 23:05 | 35.96147 | -115.31419 | 9366 ft | 295 kts | 208° |
| 2026-05-06 23:06 | 35.94322 | -115.32610 | 10134 ft | 298 kts | 208° |
| 2026-05-06 23:06 | 35.92478 | -115.33816 | 10918 ft | 301 kts | 208° |
| 2026-05-06 23:06 | 35.90629 | -115.35082 | 11698 ft | 305 kts | 215° |
| 2026-05-06 23:06 | 35.89124 | -115.36908 | 12463 ft | 306 kts | 239° |
| 2026-05-06 23:07 | 35.88414 | -115.39346 | 13194 ft | 304 kts | 265° |
| 2026-05-06 23:07 | 35.88403 | -115.41961 | 13930 ft | 307 kts | 275° |
| 2026-05-06 23:07 | 35.88516 | -115.44604 | 14641 ft | 311 kts | 275° |
| 2026-05-06 23:07 | 35.88617 | -115.47257 | 15341 ft | 315 kts | 274° |
| 2026-05-06 23:08 | 35.88703 | -115.49973 | 16023 ft | 319 kts | 274° |
| 2026-05-06 23:08 | 35.88774 | -115.52735 | 16711 ft | 323 kts | 274° |
| 2026-05-06 23:08 | 35.88837 | -115.55517 | 17373 ft | 327 kts | 274° |
| 2026-05-06 23:08 | 35.88898 | -115.58360 | 17857 ft | 338 kts | 273° |
| 2026-05-06 23:09 | 35.88958 | -115.61320 | 18152 ft | 353 kts | 273° |
| 2026-05-06 23:09 | 35.89015 | -115.64416 | 18407 ft | 370 kts | 273° |
| 2026-05-06 23:09 | 35.89075 | -115.67653 | 18648 ft | 386 kts | 273° |
| 2026-05-06 23:09 | 35.89138 | -115.71036 | 18878 ft | 401 kts | 273° |
| 2026-05-06 23:10 | 35.89200 | -115.74520 | 19318 ft | 410 kts | 273° |
| 2026-05-06 23:10 | 35.89261 | -115.78055 | 19897 ft | 413 kts | 273° |
| 2026-05-06 23:10 | 35.89323 | -115.81615 | 20464 ft | 417 kts | 273° |
| 2026-05-06 23:10 | 35.89385 | -115.85207 | 21014 ft | 420 kts | 273° |
| 2026-05-06 23:11 | 35.89501 | -115.88823 | 21539 ft | 423 kts | 277° |
| 2026-05-06 23:11 | 35.90097 | -115.92368 | 22047 ft | 424 kts | 290° |
| 2026-05-06 23:11 | 35.91347 | -115.95654 | 22530 ft | 424 kts | 304° |
| 2026-05-06 23:11 | 35.93185 | -115.98490 | 23019 ft | 424 kts | 316° |
| 2026-05-06 23:12 | 35.95287 | -116.01071 | 23503 ft | 427 kts | 317° |
| 2026-05-06 23:12 | 35.97419 | -116.03634 | 23968 ft | 430 kts | 317° |
| 2026-05-06 23:12 | 35.99563 | -116.06239 | 24426 ft | 434 kts | 317° |
| 2026-05-06 23:12 | 36.01685 | -116.08838 | 24882 ft | 437 kts | 317° |
| 2026-05-06 23:13 | 36.03871 | -116.11532 | 25341 ft | 439 kts | 317° |
| 2026-05-06 23:13 | 36.06007 | -116.14181 | 25793 ft | 442 kts | 317° |
| 2026-05-06 23:13 | 36.08174 | -116.16881 | 26222 ft | 444 kts | 317° |
| 2026-05-06 23:13 | 36.10357 | -116.19597 | 26630 ft | 447 kts | 317° |
| 2026-05-06 23:14 | 36.12568 | -116.22332 | 27029 ft | 449 kts | 317° |
| 2026-05-06 23:14 | 36.14781 | -116.25078 | 27431 ft | 452 kts | 317° |
| 2026-05-06 23:14 | 36.17006 | -116.27836 | 27823 ft | 454 kts | 317° |
| 2026-05-06 23:14 | 36.19237 | -116.30612 | 28190 ft | 456 kts | 317° |
| 2026-05-06 23:15 | 36.21481 | -116.33414 | 28542 ft | 459 kts | 317° |
| 2026-05-06 23:15 | 36.23725 | -116.36217 | 28956 ft | 459 kts | 317° |
| 2026-05-06 23:15 | 36.25980 | -116.39021 | 29419 ft | 457 kts | 317° |
| 2026-05-06 23:15 | 36.28223 | -116.41807 | 29874 ft | 456 kts | 318° |
| 2026-05-06 23:16 | 36.30500 | -116.44529 | 30305 ft | 454 kts | 319° |
| 2026-05-06 23:16 | 36.32779 | -116.47230 | 30720 ft | 453 kts | 319° |
| 2026-05-06 23:16 | 36.35055 | -116.49933 | 31117 ft | 452 kts | 319° |
| 2026-05-06 23:16 | 36.37318 | -116.52632 | 31493 ft | 451 kts | 319° |
| 2026-05-06 23:17 | 36.39551 | -116.55294 | 31855 ft | 450 kts | 319° |
| 2026-05-06 23:17 | 36.41838 | -116.58019 | 32220 ft | 449 kts | 319° |
| 2026-05-06 23:17 | 36.44067 | -116.60673 | 32550 ft | 449 kts | 319° |
| 2026-05-06 23:17 | 36.46358 | -116.63295 | 32880 ft | 447 kts | 320° |
| 2026-05-06 23:18 | 36.48649 | -116.65906 | 33208 ft | 447 kts | 320° |
| 2026-05-06 23:18 | 36.50913 | -116.68505 | 33513 ft | 446 kts | 320° |
| 2026-05-06 23:18 | 36.53212 | -116.71130 | 33812 ft | 445 kts | 320° |
| 2026-05-06 23:18 | 36.55498 | -116.73716 | 34080 ft | 444 kts | 320° |
| 2026-05-06 23:19 | 36.57781 | -116.76307 | 34351 ft | 444 kts | 320° |
| 2026-05-06 23:19 | 36.60060 | -116.78892 | 34610 ft | 443 kts | 320° |
| 2026-05-06 23:19 | 36.62339 | -116.81485 | 34866 ft | 443 kts | 320° |
| 2026-05-06 23:19 | 36.64600 | -116.84075 | 35114 ft | 442 kts | 320° |
| 2026-05-06 23:20 | 36.66855 | -116.86677 | 35372 ft | 441 kts | 320° |
| 2026-05-06 23:20 | 36.69108 | -116.89265 | 35629 ft | 440 kts | 320° |
| 2026-05-06 23:20 | 36.71300 | -116.91768 | 35799 ft | 440 kts | 320° |
| 2026-05-06 23:20 | 36.73715 | -116.94284 | 35974 ft | 437 kts | 328° |
| 2026-05-06 23:21 | 36.76312 | -116.96227 | 36119 ft | 436 kts | 334° |
| 2026-05-06 23:21 | 36.81708 | -116.99684 | 36130 ft | 435 kts | 335° |
| 2026-05-06 23:22 | 36.87062 | -117.03125 | 36111 ft | 435 kts | 335° |
| 2026-05-06 23:22 | 36.92466 | -117.06632 | 36115 ft | 434 kts | 335° |
| 2026-05-06 23:23 | 36.97791 | -117.10094 | 36110 ft | 434 kts | 335° |
| 2026-05-06 23:23 | 37.03153 | -117.13588 | 36110 ft | 434 kts | 335° |
| 2026-05-06 23:24 | 37.08508 | -117.17086 | 36112 ft | 434 kts | 335° |
| 2026-05-06 23:24 | 37.13872 | -117.20593 | 36115 ft | 434 kts | 335° |
| 2026-05-06 23:25 | 37.18330 | -117.23504 | 36123 ft | 434 kts | 335° |
| 2026-05-06 23:25 | 37.23682 | -117.27002 | 36116 ft | 434 kts | 334° |
| 2026-05-06 23:26 | 37.29018 | -117.30566 | 36110 ft | 435 kts | 331° |
| 2026-05-06 23:26 | 37.33827 | -117.35269 | 36123 ft | 438 kts | 322° |
| 2026-05-06 23:27 | 37.38454 | -117.40253 | 36131 ft | 438 kts | 322° |
| 2026-05-06 23:27 | 37.43063 | -117.45210 | 36150 ft | 438 kts | 322° |
| 2026-05-06 23:28 | 37.47431 | -117.50633 | 36149 ft | 443 kts | 308° |
| 2026-05-06 23:28 | 37.48968 | -117.54015 | 36161 ft | 447 kts | 296° |
| 2026-05-06 23:28 | 37.49890 | -117.57713 | 36159 ft | 452 kts | 283° |
| 2026-05-06 23:29 | 37.50593 | -117.65624 | 36165 ft | 455 kts | 278° |
| 2026-05-06 23:29 | 37.51191 | -117.73558 | 36161 ft | 455 kts | 278° |
| 2026-05-06 23:30 | 37.51828 | -117.81476 | 36156 ft | 454 kts | 278° |
| 2026-05-06 23:30 | 37.52468 | -117.89394 | 36149 ft | 454 kts | 278° |
| 2026-05-06 23:31 | 37.53101 | -117.97307 | 36147 ft | 454 kts | 278° |
| 2026-05-06 23:31 | 37.53725 | -118.05168 | 36141 ft | 454 kts | 278° |
| 2026-05-06 23:32 | 37.54345 | -118.13086 | 36142 ft | 454 kts | 278° |
| 2026-05-06 23:32 | 37.54966 | -118.21002 | 36140 ft | 454 kts | 278° |
| 2026-05-06 23:33 | 37.55573 | -118.28931 | 36121 ft | 454 kts | 278° |
| 2026-05-06 23:33 | 37.56179 | -118.36851 | 36134 ft | 454 kts | 278° |
| 2026-05-06 23:34 | 37.56780 | -118.44784 | 36151 ft | 454 kts | 278° |
| 2026-05-06 23:34 | 37.57365 | -118.52655 | 36167 ft | 454 kts | 278° |
| 2026-05-06 23:35 | 37.57961 | -118.60581 | 36202 ft | 454 kts | 278° |
| 2026-05-06 23:35 | 37.58539 | -118.68503 | 36241 ft | 454 kts | 277° |
| 2026-05-06 23:36 | 37.59120 | -118.76418 | 36275 ft | 453 kts | 278° |
| 2026-05-06 23:36 | 37.59703 | -118.84336 | 36288 ft | 454 kts | 278° |
| 2026-05-06 23:37 | 37.60269 | -118.92277 | 36288 ft | 454 kts | 277° |
| 2026-05-06 23:37 | 37.60834 | -119.00207 | 36281 ft | 454 kts | 277° |
| 2026-05-06 23:38 | 37.61394 | -119.08159 | 36269 ft | 454 kts | 277° |
| 2026-05-06 23:38 | 37.61944 | -119.16095 | 36265 ft | 454 kts | 277° |
| 2026-05-06 23:39 | 37.62488 | -119.23970 | 36259 ft | 454 kts | 277° |
| 2026-05-06 23:39 | 37.63033 | -119.31908 | 36253 ft | 454 kts | 277° |
| 2026-05-06 23:40 | 37.63553 | -119.39846 | 36238 ft | 454 kts | 277° |
| 2026-05-06 23:40 | 37.64078 | -119.47775 | 36229 ft | 453 kts | 277° |
| 2026-05-06 23:41 | 37.64620 | -119.55703 | 36216 ft | 453 kts | 277° |
| 2026-05-06 23:41 | 37.65139 | -119.63639 | 36205 ft | 453 kts | 277° |
| 2026-05-06 23:42 | 37.65654 | -119.71567 | 36190 ft | 453 kts | 277° |
| 2026-05-06 23:42 | 37.66162 | -119.79443 | 36181 ft | 453 kts | 277° |
| 2026-05-06 23:43 | 37.66669 | -119.87376 | 36149 ft | 453 kts | 277° |
| 2026-05-06 23:43 | 37.67172 | -119.95320 | 36134 ft | 453 kts | 276° |
| 2026-05-06 23:44 | 37.67663 | -120.03237 | 36068 ft | 450 kts | 276° |
| 2026-05-06 23:44 | 37.67906 | -120.07167 | 35733 ft | 450 kts | 276° |
| 2026-05-06 23:44 | 37.68145 | -120.11059 | 35428 ft | 451 kts | 276° |
| 2026-05-06 23:44 | 37.68386 | -120.14997 | 34866 ft | 449 kts | 276° |
| 2026-05-06 23:45 | 37.68623 | -120.18925 | 34175 ft | 449 kts | 276° |
| 2026-05-06 23:45 | 37.68858 | -120.22864 | 33459 ft | 449 kts | 276° |
| 2026-05-06 23:45 | 37.69093 | -120.26799 | 32749 ft | 450 kts | 276° |
| 2026-05-06 23:45 | 37.69329 | -120.30736 | 32009 ft | 450 kts | 276° |
| 2026-05-06 23:46 | 37.69567 | -120.34689 | 31260 ft | 451 kts | 276° |
| 2026-05-06 23:46 | 37.69790 | -120.38637 | 30566 ft | 450 kts | 275° |
| 2026-05-06 23:46 | 37.69677 | -120.42580 | 29898 ft | 450 kts | 264° |
| 2026-05-06 23:46 | 37.69239 | -120.46481 | 29225 ft | 448 kts | 263° |
| 2026-05-06 23:47 | 37.68780 | -120.50316 | 28570 ft | 445 kts | 263° |
| 2026-05-06 23:47 | 37.68321 | -120.54171 | 27923 ft | 443 kts | 263° |
| 2026-05-06 23:47 | 37.67868 | -120.58004 | 27279 ft | 440 kts | 263° |
| 2026-05-06 23:47 | 37.67417 | -120.61818 | 26610 ft | 437 kts | 263° |
| 2026-05-06 23:48 | 37.66971 | -120.65605 | 25945 ft | 435 kts | 263° |
| 2026-05-06 23:48 | 37.66527 | -120.69366 | 25303 ft | 432 kts | 263° |
| 2026-05-06 23:48 | 37.66082 | -120.73096 | 24666 ft | 429 kts | 263° |
| 2026-05-06 23:48 | 37.65639 | -120.76801 | 24095 ft | 423 kts | 263° |
| 2026-05-06 23:49 | 37.65206 | -120.80425 | 23743 ft | 411 kts | 263° |
| 2026-05-06 23:49 | 37.64782 | -120.83958 | 23148 ft | 406 kts | 263° |
| 2026-05-06 23:49 | 37.64357 | -120.87474 | 22453 ft | 404 kts | 263° |
| 2026-05-06 23:49 | 37.63933 | -120.90966 | 21828 ft | 400 kts | 263° |
| 2026-05-06 23:50 | 37.63512 | -120.94428 | 21210 ft | 397 kts | 263° |
| 2026-05-06 23:50 | 37.62652 | -121.01194 | 20016 ft | 390 kts | 262° |
| 2026-05-06 23:50 | 37.62201 | -121.04544 | 19469 ft | 385 kts | 262° |
| 2026-05-06 23:51 | 37.61755 | -121.07853 | 18943 ft | 380 kts | 262° |
| 2026-05-06 23:51 | 37.61314 | -121.11120 | 18453 ft | 378 kts | 262° |
| 2026-05-06 23:51 | 37.60873 | -121.14389 | 17975 ft | 377 kts | 262° |
| 2026-05-06 23:51 | 37.60437 | -121.17651 | 17487 ft | 377 kts | 262° |
| 2026-05-06 23:52 | 37.60002 | -121.20891 | 16991 ft | 372 kts | 262° |
| 2026-05-06 23:52 | 37.59572 | -121.24080 | 16521 ft | 366 kts | 261° |
| 2026-05-06 23:52 | 37.59157 | -121.27255 | 16051 ft | 367 kts | 262° |
| 2026-05-06 23:52 | 37.58787 | -121.30434 | 15591 ft | 365 kts | 263° |
| 2026-05-06 23:53 | 37.58428 | -121.33573 | 15141 ft | 359 kts | 263° |
| 2026-05-06 23:53 | 37.58079 | -121.36637 | 14698 ft | 358 kts | 263° |
| 2026-05-06 23:53 | 37.57719 | -121.39752 | 14229 ft | 357 kts | 263° |
| 2026-05-06 23:53 | 37.57364 | -121.42826 | 13754 ft | 352 kts | 263° |
| 2026-05-06 23:54 | 37.57013 | -121.45865 | 13280 ft | 349 kts | 262° |
| 2026-05-06 23:54 | 37.56660 | -121.48893 | 12834 ft | 349 kts | 263° |
| 2026-05-06 23:54 | 37.56311 | -121.51882 | 12510 ft | 340 kts | 263° |
| 2026-05-06 23:54 | 37.55974 | -121.54781 | 12295 ft | 327 kts | 263° |
| 2026-05-06 23:55 | 37.55651 | -121.57559 | 12101 ft | 314 kts | 263° |
| 2026-05-06 23:55 | 37.55337 | -121.60244 | 11744 ft | 308 kts | 263° |
| 2026-05-06 23:55 | 37.54970 | -121.62895 | 11231 ft | 307 kts | 257° |
| 2026-05-06 23:55 | 37.54382 | -121.65490 | 10726 ft | 307 kts | 254° |
| 2026-05-06 23:56 | 37.53765 | -121.68044 | 10282 ft | 304 kts | 254° |
| 2026-05-06 23:56 | 37.53150 | -121.70588 | 9868 ft | 301 kts | 254° |
| 2026-05-06 23:56 | 37.52554 | -121.73063 | 9646 ft | 291 kts | 254° |
| 2026-05-06 23:56 | 37.51981 | -121.75451 | 9476 ft | 279 kts | 254° |
| 2026-05-06 23:57 | 37.51427 | -121.77764 | 9150 ft | 274 kts | 254° |
| 2026-05-06 23:57 | 37.50875 | -121.80060 | 8710 ft | 274 kts | 254° |
| 2026-05-06 23:57 | 37.50322 | -121.82350 | 8283 ft | 273 kts | 254° |
| 2026-05-06 23:57 | 37.49776 | -121.84628 | 7944 ft | 269 kts | 254° |
| 2026-05-06 23:58 | 37.49255 | -121.86889 | 7539 ft | 268 kts | 258° |
| 2026-05-06 23:58 | 37.49112 | -121.89201 | 7151 ft | 264 kts | 274° |
| 2026-05-06 23:58 | 37.49245 | -121.91505 | 6771 ft | 263 kts | 275° |
| 2026-05-06 23:58 | 37.49394 | -121.93759 | 6416 ft | 260 kts | 275° |
| 2026-05-06 23:59 | 37.49538 | -121.96019 | 6071 ft | 257 kts | 275° |
| 2026-05-06 23:59 | 37.49674 | -121.98224 | 5887 ft | 246 kts | 275° |
| 2026-05-06 23:59 | 37.49799 | -122.00328 | 5703 ft | 238 kts | 275° |
| 2026-05-06 23:59 | 37.49917 | -122.02391 | 5398 ft | 234 kts | 275° |
| 2026-05-07 00:00 | 37.50032 | -122.04427 | 5053 ft | 232 kts | 275° |
| 2026-05-07 00:00 | 37.50146 | -122.06452 | 4719 ft | 230 kts | 275° |
| 2026-05-07 00:00 | 37.50376 | -122.08438 | 4356 ft | 229 kts | 283° |
| 2026-05-07 00:00 | 37.50657 | -122.09719 | 4143 ft | 229 kts | 289° |
| 2026-05-07 00:01 | 37.51452 | -122.12169 | 3744 ft | 222 kts | 297° |
| 2026-05-07 00:01 | 37.52169 | -122.13825 | 3551 ft | 211 kts | 297° |
| 2026-05-07 00:01 | 37.52849 | -122.15445 | 3344 ft | 203 kts | 298° |
| 2026-05-07 00:01 | 37.53500 | -122.16998 | 3180 ft | 203 kts | 298° |
| 2026-05-07 00:02 | 37.54159 | -122.18568 | 2984 ft | 202 kts | 298° |
| 2026-05-07 00:02 | 37.54817 | -122.20136 | 2748 ft | 201 kts | 298° |
| 2026-05-07 00:02 | 37.55470 | -122.21690 | 2491 ft | 200 kts | 298° |
| 2026-05-07 00:02 | 37.56121 | -122.23243 | 2223 ft | 200 kts | 298° |
| 2026-05-07 00:03 | 37.56769 | -122.24789 | 1963 ft | 199 kts | 298° |
| 2026-05-07 00:03 | 37.57396 | -122.26283 | 1755 ft | 187 kts | 298° |
| 2026-05-07 00:03 | 37.57980 | -122.27679 | 1504 ft | 173 kts | 298° |
| 2026-05-07 00:03 | 37.58522 | -122.28972 | 1296 ft | 158 kts | 298° |
| 2026-05-07 00:04 | 37.58989 | -122.30086 | 1063 ft | 133 kts | 297° |
| 2026-05-07 00:04 | 37.59409 | -122.31090 | 871 ft | 128 kts | 296° |
| 2026-05-07 00:04 | 37.59823 | -122.32079 | 702 ft | 128 kts | 296° |
| 2026-05-07 00:04 | 37.60238 | -122.33069 | 535 ft | 128 kts | 296° |
| 2026-05-07 00:05 | 37.60654 | -122.34062 | 367 ft | 128 kts | 296° |
| 2026-05-07 00:05 | 37.61071 | -122.35056 | 200 ft | 128 kts | 297° |
| 2026-05-07 00:05 | 37.61495 | -122.36051 | 29 ft | 128 kts | 297° |
| 2026-05-07 00:05 | 37.61858 | -122.36916 | 22 ft | 87 kts | 297° |
| 2026-05-07 00:06 | 37.62049 | -122.37371 | 21 ft | 30 kts | 297° |
| 2026-05-07 00:06 | 37.62139 | -122.37586 | 24 ft | 29 kts | 298° |
| 2026-05-07 00:06 | 37.62201 | -122.37833 | 25 ft | 31 kts | 281° |
| 2026-05-07 00:06 | 37.62224 | -122.38051 | 29 ft | 20 kts | 274° |
| 2026-05-07 00:07 | 37.62233 | -122.38233 | 27 ft | 21 kts | 268° |
| 2026-05-07 00:07 | 37.62224 | -122.38425 | 26 ft | 23 kts | 263° |
| 2026-05-07 00:07 | 37.62180 | -122.38516 | 25 ft | 15 kts | 137° |
| 2026-05-07 00:07 | 37.62122 | -122.38398 | 26 ft | 17 kts | 116° |
| 2026-05-07 00:08 | 37.62018 | -122.38328 | 28 ft | 20 kts | 122° |
| 2026-05-07 00:08 | 37.61920 | -122.38249 | 26 ft | 21 kts | 216° |
| 2026-05-07 00:08 | 37.61823 | -122.38279 | 24 ft | 16 kts | 118° |
| 2026-05-07 00:08 | 37.61805 | -122.38241 | 23 ft | 4 kts | 120° |
| 2026-05-07 00:09 | 37.61800 | -122.38231 | 24 ft | 1 kts | 120° |
| 2026-05-07 00:09 | 37.61798 | -122.38226 | 23 ft | 0 kts | 120° |